sensor_id;sensor_type;location;lat;lon;timestamp;P1;durP1;ratioP1;P2;durP2;ratioP2
11642;SDS011;5877;50.930;6.918;2023-10-09T00:08:25;17.07;;;11.03;;
11642;SDS011;5877;50.930;6.918;2023-10-09T00:13:25;15.50;;;11.10;;
11642;SDS011;5877;50.930;6.918;2023-10-09T00:18:29;18.07;;;11.17;;
11642;SDS011;5877;50.930;6.918;2023-10-09T00:23:21;14.60;;;10.63;;
11642;SDS011;5877;50.930;6.918;2023-10-09T00:28:17;18.10;;;10.10;;
11642;SDS011;5877;50.930;6.918;2023-10-09T00:33:13;16.97;;;10.50;;
11642;SDS011;5877;50.930;6.918;2023-10-09T00:38:10;13.87;;;10.43;;
11642;SDS011;5877;50.930;6.918;2023-10-09T00:44:01;15.50;;;10.60;;
11642;SDS011;5877;50.930;6.918;2023-10-09T00:48:59;14.17;;;10.47;;
11642;SDS011;5877;50.930;6.918;2023-10-09T00:53:57;13.17;;;10.50;;
11642;SDS011;5877;50.930;6.918;2023-10-09T00:59:01;13.30;;;9.80;;
11642;SDS011;5877;50.930;6.918;2023-10-09T01:11:29;13.07;;;9.53;;
11642;SDS011;5877;50.930;6.918;2023-10-09T01:16:24;16.17;;;10.63;;
11642;SDS011;5877;50.930;6.918;2023-10-09T01:21:37;13.80;;;10.20;;
11642;SDS011;5877;50.930;6.918;2023-10-09T01:32:48;12.10;;;8.73;;
11642;SDS011;5877;50.930;6.918;2023-10-09T01:44:50;13.43;;;8.30;;
11642;SDS011;5877;50.930;6.918;2023-10-09T01:56:28;14.80;;;9.03;;
11642;SDS011;5877;50.930;6.918;2023-10-09T02:01:41;12.23;;;8.30;;
11642;SDS011;5877;50.930;6.918;2023-10-09T02:06:41;12.73;;;8.00;;
11642;SDS011;5877;50.930;6.918;2023-10-09T02:11:37;13.20;;;8.50;;
11642;SDS011;5877;50.930;6.918;2023-10-09T02:16:35;11.17;;;8.53;;
11642;SDS011;5877;50.930;6.918;2023-10-09T02:28:11;10.97;;;8.13;;
11642;SDS011;5877;50.930;6.918;2023-10-09T02:33:29;11.67;;;8.00;;
11642;SDS011;5877;50.930;6.918;2023-10-09T02:38:25;10.87;;;8.10;;
11642;SDS011;5877;50.930;6.918;2023-10-09T02:43:18;10.60;;;8.20;;
11642;SDS011;5877;50.930;6.918;2023-10-09T02:48:13;10.27;;;7.93;;
11642;SDS011;5877;50.930;6.918;2023-10-09T02:53:08;10.10;;;8.00;;
11642;SDS011;5877;50.930;6.918;2023-10-09T02:58:07;10.77;;;7.73;;
11642;SDS011;5877;50.930;6.918;2023-10-09T03:03:06;9.90;;;7.40;;
11642;SDS011;5877;50.930;6.918;2023-10-09T03:07:59;11.10;;;7.57;;
11642;SDS011;5877;50.930;6.918;2023-10-09T03:12:52;13.10;;;7.50;;
11642;SDS011;5877;50.930;6.918;2023-10-09T03:17:45;10.90;;;7.63;;
11642;SDS011;5877;50.930;6.918;2023-10-09T03:22:41;11.27;;;7.40;;
11642;SDS011;5877;50.930;6.918;2023-10-09T03:27:34;11.27;;;7.83;;
11642;SDS011;5877;50.930;6.918;2023-10-09T03:32:28;10.97;;;7.20;;
11642;SDS011;5877;50.930;6.918;2023-10-09T03:37:21;10.43;;;7.13;;
11642;SDS011;5877;50.930;6.918;2023-10-09T03:42:34;10.33;;;7.03;;
11642;SDS011;5877;50.930;6.918;2023-10-09T03:47:30;10.07;;;6.90;;
11642;SDS011;5877;50.930;6.918;2023-10-09T03:52:23;9.47;;;7.20;;
11642;SDS011;5877;50.930;6.918;2023-10-09T03:57:19;9.73;;;7.73;;
11642;SDS011;5877;50.930;6.918;2023-10-09T04:02:25;9.90;;;6.40;;
11642;SDS011;5877;50.930;6.918;2023-10-09T04:07:19;10.03;;;8.17;;
11642;SDS011;5877;50.930;6.918;2023-10-09T04:12:11;11.37;;;7.80;;
11642;SDS011;5877;50.930;6.918;2023-10-09T04:17:04;11.17;;;6.87;;
11642;SDS011;5877;50.930;6.918;2023-10-09T04:21:57;12.63;;;7.73;;
11642;SDS011;5877;50.930;6.918;2023-10-09T04:26:53;9.43;;;7.03;;
11642;SDS011;5877;50.930;6.918;2023-10-09T04:31:49;9.57;;;7.37;;
11642;SDS011;5877;50.930;6.918;2023-10-09T04:36:44;9.47;;;6.47;;
11642;SDS011;5877;50.930;6.918;2023-10-09T04:41:44;10.40;;;8.07;;
11642;SDS011;5877;50.930;6.918;2023-10-09T04:46:37;11.13;;;7.17;;
11642;SDS011;5877;50.930;6.918;2023-10-09T04:51:35;10.10;;;6.20;;
11642;SDS011;5877;50.930;6.918;2023-10-09T04:56:40;8.20;;;6.13;;
11642;SDS011;5877;50.930;6.918;2023-10-09T05:01:44;8.57;;;6.40;;
11642;SDS011;5877;50.930;6.918;2023-10-09T05:06:50;7.07;;;5.87;;
11642;SDS011;5877;50.930;6.918;2023-10-09T05:11:50;13.23;;;8.07;;
11642;SDS011;5877;50.930;6.918;2023-10-09T05:16:47;11.97;;;6.10;;
11642;SDS011;5877;50.930;6.918;2023-10-09T05:21:52;10.80;;;7.40;;
11642;SDS011;5877;50.930;6.918;2023-10-09T05:32:29;8.67;;;5.80;;
11642;SDS011;5877;50.930;6.918;2023-10-09T05:37:27;8.27;;;6.13;;
11642;SDS011;5877;50.930;6.918;2023-10-09T05:42:26;6.90;;;5.57;;
11642;SDS011;5877;50.930;6.918;2023-10-09T05:47:35;9.73;;;5.90;;
11642;SDS011;5877;50.930;6.918;2023-10-09T05:52:30;7.80;;;5.63;;
11642;SDS011;5877;50.930;6.918;2023-10-09T05:57:31;9.10;;;6.07;;
11642;SDS011;5877;50.930;6.918;2023-10-09T06:02:42;8.60;;;6.20;;
11642;SDS011;5877;50.930;6.918;2023-10-09T06:08:04;7.33;;;5.77;;
11642;SDS011;5877;50.930;6.918;2023-10-09T06:13:02;7.80;;;5.77;;
11642;SDS011;5877;50.930;6.918;2023-10-09T06:17:57;9.13;;;6.53;;
11642;SDS011;5877;50.930;6.918;2023-10-09T06:23:10;10.27;;;6.10;;
11642;SDS011;5877;50.930;6.918;2023-10-09T06:28:29;8.07;;;5.90;;
11642;SDS011;5877;50.930;6.918;2023-10-09T06:33:28;8.97;;;5.70;;
11642;SDS011;5877;50.930;6.918;2023-10-09T06:38:46;7.77;;;5.97;;
11642;SDS011;5877;50.930;6.918;2023-10-09T06:44:05;9.47;;;5.93;;
11642;SDS011;5877;50.930;6.918;2023-10-09T06:49:02;12.97;;;7.23;;
11642;SDS011;5877;50.930;6.918;2023-10-09T06:54:14;12.27;;;7.73;;
11642;SDS011;5877;50.930;6.918;2023-10-09T06:59:09;10.90;;;6.00;;
11642;SDS011;5877;50.930;6.918;2023-10-09T07:04:16;9.13;;;5.87;;
11642;SDS011;5877;50.930;6.918;2023-10-09T07:09:49;9.67;;;4.97;;
11642;SDS011;5877;50.930;6.918;2023-10-09T07:15:00;9.10;;;5.57;;
11642;SDS011;5877;50.930;6.918;2023-10-09T07:20:09;9.87;;;5.60;;
11642;SDS011;5877;50.930;6.918;2023-10-09T07:25:26;8.40;;;6.40;;
11642;SDS011;5877;50.930;6.918;2023-10-09T07:30:35;9.73;;;6.23;;
11642;SDS011;5877;50.930;6.918;2023-10-09T07:35:31;11.10;;;5.17;;
11642;SDS011;5877;50.930;6.918;2023-10-09T07:40:37;9.47;;;6.00;;
11642;SDS011;5877;50.930;6.918;2023-10-09T07:45:50;13.53;;;6.20;;
11642;SDS011;5877;50.930;6.918;2023-10-09T07:50:43;7.97;;;5.90;;
11642;SDS011;5877;50.930;6.918;2023-10-09T07:55:44;10.47;;;6.57;;
11642;SDS011;5877;50.930;6.918;2023-10-09T08:00:48;14.53;;;6.80;;
11642;SDS011;5877;50.930;6.918;2023-10-09T08:05:58;10.20;;;5.70;;
11642;SDS011;5877;50.930;6.918;2023-10-09T08:11:10;13.63;;;7.17;;
11642;SDS011;5877;50.930;6.918;2023-10-09T08:16:32;11.40;;;6.33;;
11642;SDS011;5877;50.930;6.918;2023-10-09T08:21:31;10.57;;;6.17;;
11642;SDS011;5877;50.930;6.918;2023-10-09T08:26:57;10.90;;;6.13;;
11642;SDS011;5877;50.930;6.918;2023-10-09T08:32:10;10.83;;;6.23;;
11642;SDS011;5877;50.930;6.918;2023-10-09T08:37:14;8.93;;;5.83;;
11642;SDS011;5877;50.930;6.918;2023-10-09T08:42:07;9.13;;;6.77;;
11642;SDS011;5877;50.930;6.918;2023-10-09T08:47:04;8.30;;;5.20;;
11642;SDS011;5877;50.930;6.918;2023-10-09T08:51:57;10.57;;;7.73;;
11642;SDS011;5877;50.930;6.918;2023-10-09T08:56:57;8.37;;;5.87;;
11642;SDS011;5877;50.930;6.918;2023-10-09T09:01:50;8.30;;;5.30;;
11642;SDS011;5877;50.930;6.918;2023-10-09T09:06:46;8.20;;;6.13;;
11642;SDS011;5877;50.930;6.918;2023-10-09T09:11:42;9.27;;;6.17;;
11642;SDS011;5877;50.930;6.918;2023-10-09T09:16:45;9.23;;;5.67;;
11642;SDS011;5877;50.930;6.918;2023-10-09T09:21:42;10.83;;;5.67;;
11642;SDS011;5877;50.930;6.918;2023-10-09T09:26:53;9.00;;;6.37;;
11642;SDS011;5877;50.930;6.918;2023-10-09T09:31:55;10.10;;;5.70;;
11642;SDS011;5877;50.930;6.918;2023-10-09T09:37:09;9.63;;;5.60;;
11642;SDS011;5877;50.930;6.918;2023-10-09T09:42:08;9.73;;;5.53;;
11642;SDS011;5877;50.930;6.918;2023-10-09T09:47:13;8.97;;;5.17;;
11642;SDS011;5877;50.930;6.918;2023-10-09T09:52:19;12.07;;;5.77;;
11642;SDS011;5877;50.930;6.918;2023-10-09T09:57:31;9.17;;;5.23;;
11642;SDS011;5877;50.930;6.918;2023-10-09T10:02:46;7.93;;;4.57;;
11642;SDS011;5877;50.930;6.918;2023-10-09T10:07:41;10.50;;;4.13;;
11642;SDS011;5877;50.930;6.918;2023-10-09T10:18:24;6.50;;;4.03;;
11642;SDS011;5877;50.930;6.918;2023-10-09T10:23:17;8.60;;;4.43;;
11642;SDS011;5877;50.930;6.918;2023-10-09T10:28:29;8.57;;;4.47;;
11642;SDS011;5877;50.930;6.918;2023-10-09T10:34:02;8.33;;;5.20;;
11642;SDS011;5877;50.930;6.918;2023-10-09T10:43:59;10.90;;;5.17;;
11642;SDS011;5877;50.930;6.918;2023-10-09T10:49:12;7.03;;;3.77;;
11642;SDS011;5877;50.930;6.918;2023-10-09T10:54:09;5.80;;;3.77;;
11642;SDS011;5877;50.930;6.918;2023-10-09T10:59:23;5.67;;;3.63;;
11642;SDS011;5877;50.930;6.918;2023-10-09T11:04:25;10.17;;;4.73;;
11642;SDS011;5877;50.930;6.918;2023-10-09T11:14:55;7.57;;;4.63;;
11642;SDS011;5877;50.930;6.918;2023-10-09T11:20:17;4.97;;;3.43;;
11642;SDS011;5877;50.930;6.918;2023-10-09T11:25:16;6.17;;;2.80;;
11642;SDS011;5877;50.930;6.918;2023-10-09T11:30:12;6.20;;;2.90;;
11642;SDS011;5877;50.930;6.918;2023-10-09T11:35:14;7.80;;;3.70;;
11642;SDS011;5877;50.930;6.918;2023-10-09T11:40:29;8.47;;;4.10;;
11642;SDS011;5877;50.930;6.918;2023-10-09T11:45:39;7.87;;;4.10;;
11642;SDS011;5877;50.930;6.918;2023-10-09T11:50:46;8.07;;;4.20;;
11642;SDS011;5877;50.930;6.918;2023-10-09T11:55:42;6.67;;;3.70;;
11642;SDS011;5877;50.930;6.918;2023-10-09T12:00:40;6.17;;;3.97;;
11642;SDS011;5877;50.930;6.918;2023-10-09T12:05:41;6.00;;;2.90;;
11642;SDS011;5877;50.930;6.918;2023-10-09T12:10:36;6.97;;;3.07;;
11642;SDS011;5877;50.930;6.918;2023-10-09T12:15:30;4.37;;;3.03;;
11642;SDS011;5877;50.930;6.918;2023-10-09T12:20:33;6.70;;;3.60;;
11642;SDS011;5877;50.930;6.918;2023-10-09T12:25:27;7.97;;;3.33;;
11642;SDS011;5877;50.930;6.918;2023-10-09T12:30:23;6.70;;;3.97;;
11642;SDS011;5877;50.930;6.918;2023-10-09T12:35:19;5.90;;;3.50;;
11642;SDS011;5877;50.930;6.918;2023-10-09T12:40:14;6.33;;;4.13;;
11642;SDS011;5877;50.930;6.918;2023-10-09T12:45:14;10.43;;;4.03;;
11642;SDS011;5877;50.930;6.918;2023-10-09T12:50:09;7.40;;;3.53;;
11642;SDS011;5877;50.930;6.918;2023-10-09T12:55:09;6.97;;;4.67;;
11642;SDS011;5877;50.930;6.918;2023-10-09T13:00:12;7.07;;;4.60;;
11642;SDS011;5877;50.930;6.918;2023-10-09T13:05:04;13.70;;;4.70;;
11642;SDS011;5877;50.930;6.918;2023-10-09T13:09:59;7.17;;;4.23;;
11642;SDS011;5877;50.930;6.918;2023-10-09T13:15:05;8.37;;;5.63;;
11642;SDS011;5877;50.930;6.918;2023-10-09T13:20:02;9.20;;;5.03;;
11642;SDS011;5877;50.930;6.918;2023-10-09T13:25:05;7.70;;;5.40;;
11642;SDS011;5877;50.930;6.918;2023-10-09T13:29:58;9.40;;;4.50;;
11642;SDS011;5877;50.930;6.918;2023-10-09T13:34:57;17.07;;;5.50;;
11642;SDS011;5877;50.930;6.918;2023-10-09T13:39:54;8.37;;;5.43;;
11642;SDS011;5877;50.930;6.918;2023-10-09T13:44:48;9.47;;;5.50;;
11642;SDS011;5877;50.930;6.918;2023-10-09T13:49:40;8.20;;;4.07;;
11642;SDS011;5877;50.930;6.918;2023-10-09T13:54:36;7.03;;;4.80;;
11642;SDS011;5877;50.930;6.918;2023-10-09T13:59:28;6.60;;;4.87;;
11642;SDS011;5877;50.930;6.918;2023-10-09T14:04:22;12.47;;;5.40;;
11642;SDS011;5877;50.930;6.918;2023-10-09T14:09:16;10.27;;;4.37;;
11642;SDS011;5877;50.930;6.918;2023-10-09T14:14:25;8.33;;;4.43;;
11642;SDS011;5877;50.930;6.918;2023-10-09T14:19:18;7.23;;;4.53;;
11642;SDS011;5877;50.930;6.918;2023-10-09T14:24:13;8.33;;;4.83;;
11642;SDS011;5877;50.930;6.918;2023-10-09T14:29:11;7.60;;;4.93;;
11642;SDS011;5877;50.930;6.918;2023-10-09T14:34:10;8.77;;;4.77;;
11642;SDS011;5877;50.930;6.918;2023-10-09T14:39:02;7.77;;;4.83;;
11642;SDS011;5877;50.930;6.918;2023-10-09T14:44:01;6.57;;;5.03;;
11642;SDS011;5877;50.930;6.918;2023-10-09T14:49:01;10.57;;;5.20;;
11642;SDS011;5877;50.930;6.918;2023-10-09T14:53:58;8.13;;;5.90;;
11642;SDS011;5877;50.930;6.918;2023-10-09T14:58:50;7.73;;;5.50;;
11642;SDS011;5877;50.930;6.918;2023-10-09T15:03:44;6.17;;;4.83;;
11642;SDS011;5877;50.930;6.918;2023-10-09T15:08:40;8.53;;;5.97;;
11642;SDS011;5877;50.930;6.918;2023-10-09T15:13:32;9.10;;;6.10;;
11642;SDS011;5877;50.930;6.918;2023-10-09T15:18:25;9.73;;;5.00;;
11642;SDS011;5877;50.930;6.918;2023-10-09T15:23:19;8.83;;;5.90;;
11642;SDS011;5877;50.930;6.918;2023-10-09T15:28:13;14.20;;;10.13;;
11642;SDS011;5877;50.930;6.918;2023-10-09T15:33:08;9.47;;;6.20;;
11642;SDS011;5877;50.930;6.918;2023-10-09T15:38:03;13.83;;;9.20;;
11642;SDS011;5877;50.930;6.918;2023-10-09T15:42:56;14.63;;;9.73;;
11642;SDS011;5877;50.930;6.918;2023-10-09T15:47:49;9.63;;;6.23;;
11642;SDS011;5877;50.930;6.918;2023-10-09T15:52:43;9.93;;;7.47;;
11642;SDS011;5877;50.930;6.918;2023-10-09T15:57:39;8.33;;;6.60;;
11642;SDS011;5877;50.930;6.918;2023-10-09T16:02:34;13.60;;;9.07;;
11642;SDS011;5877;50.930;6.918;2023-10-09T16:07:29;11.10;;;8.57;;
11642;SDS011;5877;50.930;6.918;2023-10-09T16:12:21;8.57;;;6.47;;
11642;SDS011;5877;50.930;6.918;2023-10-09T16:17:15;7.13;;;5.30;;
11642;SDS011;5877;50.930;6.918;2023-10-09T16:22:08;7.63;;;5.70;;
11642;SDS011;5877;50.930;6.918;2023-10-09T16:32:09;8.43;;;5.80;;
11642;SDS011;5877;50.930;6.918;2023-10-09T16:37:03;11.03;;;7.17;;
11642;SDS011;5877;50.930;6.918;2023-10-09T16:41:58;13.63;;;9.17;;
11642;SDS011;5877;50.930;6.918;2023-10-09T16:46:52;10.43;;;6.57;;
11642;SDS011;5877;50.930;6.918;2023-10-09T16:51:46;10.30;;;6.80;;
11642;SDS011;5877;50.930;6.918;2023-10-09T16:56:38;10.80;;;7.40;;
11642;SDS011;5877;50.930;6.918;2023-10-09T17:01:34;8.87;;;6.23;;
11642;SDS011;5877;50.930;6.918;2023-10-09T17:06:29;10.27;;;7.17;;
11642;SDS011;5877;50.930;6.918;2023-10-09T17:11:22;9.77;;;7.40;;
11642;SDS011;5877;50.930;6.918;2023-10-09T17:16:19;22.13;;;16.10;;
11642;SDS011;5877;50.930;6.918;2023-10-09T17:21:14;16.27;;;11.20;;
11642;SDS011;5877;50.930;6.918;2023-10-09T17:26:08;17.70;;;10.80;;
11642;SDS011;5877;50.930;6.918;2023-10-09T17:31:03;10.40;;;7.13;;
11642;SDS011;5877;50.930;6.918;2023-10-09T17:35:59;26.47;;;18.23;;
11642;SDS011;5877;50.930;6.918;2023-10-09T17:40:57;16.80;;;11.97;;
11642;SDS011;5877;50.930;6.918;2023-10-09T17:45:54;24.23;;;17.03;;
11642;SDS011;5877;50.930;6.918;2023-10-09T17:50:49;14.63;;;11.50;;
11642;SDS011;5877;50.930;6.918;2023-10-09T17:55:42;10.90;;;7.03;;
11642;SDS011;5877;50.930;6.918;2023-10-09T18:00:37;11.03;;;8.03;;
11642;SDS011;5877;50.930;6.918;2023-10-09T18:05:33;11.00;;;7.63;;
11642;SDS011;5877;50.930;6.918;2023-10-09T18:15:37;11.27;;;8.50;;
11642;SDS011;5877;50.930;6.918;2023-10-09T18:20:29;11.00;;;7.83;;
11642;SDS011;5877;50.930;6.918;2023-10-09T18:25:25;11.07;;;7.43;;
11642;SDS011;5877;50.930;6.918;2023-10-09T18:30:17;8.90;;;6.87;;
11642;SDS011;5877;50.930;6.918;2023-10-09T18:35:10;15.27;;;10.33;;
11642;SDS011;5877;50.930;6.918;2023-10-09T18:40:03;10.80;;;7.60;;
11642;SDS011;5877;50.930;6.918;2023-10-09T18:45:06;12.37;;;6.87;;
11642;SDS011;5877;50.930;6.918;2023-10-09T18:50:02;14.57;;;7.73;;
11642;SDS011;5877;50.930;6.918;2023-10-09T18:54:56;18.27;;;11.77;;
11642;SDS011;5877;50.930;6.918;2023-10-09T18:59:52;14.67;;;10.43;;
11642;SDS011;5877;50.930;6.918;2023-10-09T19:04:50;14.50;;;9.80;;
11642;SDS011;5877;50.930;6.918;2023-10-09T19:09:45;11.33;;;9.37;;
11642;SDS011;5877;50.930;6.918;2023-10-09T19:14:40;10.13;;;8.10;;
11642;SDS011;5877;50.930;6.918;2023-10-09T19:19:36;19.87;;;13.10;;
11642;SDS011;5877;50.930;6.918;2023-10-09T19:24:28;14.03;;;9.57;;
11642;SDS011;5877;50.930;6.918;2023-10-09T19:29:22;11.63;;;7.40;;
11642;SDS011;5877;50.930;6.918;2023-10-09T19:34:15;12.57;;;8.00;;
11642;SDS011;5877;50.930;6.918;2023-10-09T19:39:09;12.83;;;8.63;;
11642;SDS011;5877;50.930;6.918;2023-10-09T19:44:05;23.37;;;15.97;;
11642;SDS011;5877;50.930;6.918;2023-10-09T19:48:57;12.70;;;9.17;;
11642;SDS011;5877;50.930;6.918;2023-10-09T19:53:49;12.10;;;9.40;;
11642;SDS011;5877;50.930;6.918;2023-10-09T19:58:45;11.73;;;7.73;;
11642;SDS011;5877;50.930;6.918;2023-10-09T20:03:43;11.83;;;9.30;;
11642;SDS011;5877;50.930;6.918;2023-10-09T20:08:39;15.67;;;9.57;;
11642;SDS011;5877;50.930;6.918;2023-10-09T20:13:34;14.07;;;10.67;;
11642;SDS011;5877;50.930;6.918;2023-10-09T20:18:26;13.23;;;8.60;;
11642;SDS011;5877;50.930;6.918;2023-10-09T20:23:19;10.07;;;8.13;;
11642;SDS011;5877;50.930;6.918;2023-10-09T20:28:13;11.30;;;8.47;;
11642;SDS011;5877;50.930;6.918;2023-10-09T20:33:15;13.40;;;10.83;;
11642;SDS011;5877;50.930;6.918;2023-10-09T20:38:09;17.50;;;11.87;;
11642;SDS011;5877;50.930;6.918;2023-10-09T20:43:01;14.40;;;8.40;;
11642;SDS011;5877;50.930;6.918;2023-10-09T20:47:56;30.30;;;22.07;;
11642;SDS011;5877;50.930;6.918;2023-10-09T20:52:49;9.67;;;8.17;;
11642;SDS011;5877;50.930;6.918;2023-10-09T20:57:42;15.43;;;9.43;;
11642;SDS011;5877;50.930;6.918;2023-10-09T21:02:35;13.43;;;10.13;;
11642;SDS011;5877;50.930;6.918;2023-10-09T21:07:28;13.77;;;10.90;;
11642;SDS011;5877;50.930;6.918;2023-10-09T21:12:22;13.27;;;9.50;;
11642;SDS011;5877;50.930;6.918;2023-10-09T21:17:15;13.53;;;9.23;;
11642;SDS011;5877;50.930;6.918;2023-10-09T21:22:09;12.53;;;9.63;;
11642;SDS011;5877;50.930;6.918;2023-10-09T21:27:04;13.57;;;9.03;;
11642;SDS011;5877;50.930;6.918;2023-10-09T21:31:57;13.10;;;9.90;;
11642;SDS011;5877;50.930;6.918;2023-10-09T21:36:50;16.33;;;9.73;;
11642;SDS011;5877;50.930;6.918;2023-10-09T21:41:44;17.47;;;9.80;;
11642;SDS011;5877;50.930;6.918;2023-10-09T21:46:38;14.07;;;9.77;;
11642;SDS011;5877;50.930;6.918;2023-10-09T21:51:30;11.63;;;9.20;;
11642;SDS011;5877;50.930;6.918;2023-10-09T21:56:26;14.03;;;9.37;;
11642;SDS011;5877;50.930;6.918;2023-10-09T22:01:49;11.20;;;8.97;;
11642;SDS011;5877;50.930;6.918;2023-10-09T22:06:45;13.57;;;9.67;;
11642;SDS011;5877;50.930;6.918;2023-10-09T22:11:42;20.23;;;15.07;;
11642;SDS011;5877;50.930;6.918;2023-10-09T22:16:39;17.10;;;10.73;;
11642;SDS011;5877;50.930;6.918;2023-10-09T22:21:31;11.43;;;9.10;;
11642;SDS011;5877;50.930;6.918;2023-10-09T22:26:24;10.80;;;8.90;;
11642;SDS011;5877;50.930;6.918;2023-10-09T22:31:19;11.63;;;8.77;;
11642;SDS011;5877;50.930;6.918;2023-10-09T22:36:14;21.67;;;16.20;;
11642;SDS011;5877;50.930;6.918;2023-10-09T22:41:25;23.00;;;16.60;;
11642;SDS011;5877;50.930;6.918;2023-10-09T22:46:22;13.20;;;8.90;;
11642;SDS011;5877;50.930;6.918;2023-10-09T22:51:15;15.10;;;9.27;;
11642;SDS011;5877;50.930;6.918;2023-10-09T22:56:15;10.43;;;7.80;;
11642;SDS011;5877;50.930;6.918;2023-10-09T23:01:08;14.23;;;9.50;;
11642;SDS011;5877;50.930;6.918;2023-10-09T23:06:13;18.17;;;13.67;;
11642;SDS011;5877;50.930;6.918;2023-10-09T23:11:05;25.53;;;18.70;;
11642;SDS011;5877;50.930;6.918;2023-10-09T23:16:01;12.77;;;10.30;;
11642;SDS011;5877;50.930;6.918;2023-10-09T23:20:59;17.93;;;13.20;;
11642;SDS011;5877;50.930;6.918;2023-10-09T23:26:11;19.20;;;13.40;;
11642;SDS011;5877;50.930;6.918;2023-10-09T23:31:13;13.73;;;9.40;;
11642;SDS011;5877;50.930;6.918;2023-10-09T23:36:21;11.43;;;9.27;;
11642;SDS011;5877;50.930;6.918;2023-10-09T23:41:21;11.17;;;8.70;;
11642;SDS011;5877;50.930;6.918;2023-10-09T23:46:15;11.70;;;8.87;;
11642;SDS011;5877;50.930;6.918;2023-10-09T23:51:09;12.77;;;8.53;;
11642;SDS011;5877;50.930;6.918;2023-10-09T23:56:10;12.97;;;8.90;;
